aviador You're here:

LFLS Decoded Metar

GRENOBLE in FRANCE
Report Time2018-06-18 05:30:00
UTC Time2018-06-18 05:41:22
Flight Rules vfr VFR
WindVRB at 03 kt
Visibility9999 m
Phenomena:N/A
Clouds:Broken 047 Hf
Expected CloudBase > 2,000 ft AGL from Temp-Dew spread
Ceiling4,700 ft
Temp15°C (ISA +3)
Dew Point10°C (72% RH)
AAT14.0°C
QNH1023 hPa
Density Alt1,398 ft
Elevation1,266 ft
Report Wrong Elevation
Raw Report
LFLS 180530Z AUTO VRB03KT 9999 BKN047 15/10 Q1023 NOSIG=

Extra information for LFLS:More info

Metar Taf Metar & Taf Last 4 Metars F.Rules Stats Wind Profile Meteogram Temp Stats Airport Information Weather charts Add Link Nearby VenuesMetar ALERT Operation Metar Decoded Social comments